Mount Juliet, Tennessee
Current Conditions -  °F | °C
As of 3:53 PM on Friday 24 Oct 2014 (Local Time) from KBNA Reporting Station
Scattered Clouds Scattered Clouds  
Wind Chill: 72°   Ceiling: Unl
Heat Index: 72°   Visibility: 10mi
Dew Point: 43°   Wind: 3mph
Humidity: 35%   Direction: NA
Pressure: 30.06"   Gusts: NA
Location:  36.2°N, 86.52°W
Report Text: KBNA 242053Z VRB03KT 10SM FEW140 SCT250 22/06 A3006 RMK AO2 SLP178 T02220061 56016
Loading
Personal Weather Stations






























Interactive Weather Map
Tropical Storm Tracking
New forecast layout! Learn more

10-Day Weather Forecast

Advertisements
Track Severe Weather on mobile